Time;durP1;ratioP1;P1;durP2;ratioP2;P2;SDS_P1;SDS_P2;PMS_P1;PMS_P2;Temp;Humidity;BMP_temperature;BMP_pressure;BME280_temperature;BME280_humidity;BME280_pressure;Samples;Min_cycle;Max_cycle;Signal;HPM_P1;HPM_P2
2022/12/03 00:00:46;;;;;;;;;;;;;;;28.69;41.33;97772.81;591760;239;68771;-69
2022/12/03 00:03:14;;;;;;;;;;;;;;;28.68;40.38;97773.13;591754;239;65172;-69
2022/12/03 00:05:41;;;;;;;;;;;;;;;28.68;40.60;97773.13;591819;239;68977;-69
2022/12/03 00:08:09;;;;;;;;;;;;;;;28.67;42.27;97785.03;591775;239;68693;-69
2022/12/03 00:10:36;;;;;;;;;;;;;;;28.67;40.56;97790.44;591753;239;64891;-70
2022/12/03 00:13:04;;;;;;;;;;;;;;;28.66;41.26;97784.23;591760;239;68554;-69
2022/12/03 00:15:31;;;;;;;;;;;;;;;28.65;41.34;97784.56;591773;239;68777;-69
2022/12/03 00:17:59;;;;;;;;;;;;;;;28.64;41.71;97782.94;591735;239;65082;-69
2022/12/03 00:20:27;;;;;;;;;;;;;;;28.62;40.51;97785.14;591805;239;69776;-69
2022/12/03 00:22:54;;;;;;;;;;;;;;;28.61;41.03;97784.34;591754;239;68659;-69
2022/12/03 00:25:22;;;;;;;;;;;;;;;28.61;40.52;97794.37;591728;239;65032;-69
2022/12/03 00:27:49;;;;;;;;;;;;;;;28.60;41.45;97790.07;591786;239;68977;-69
2022/12/03 00:30:17;;;;;;;;;;;;;;;28.60;41.11;97796.27;591749;239;68732;-69
2022/12/03 00:32:44;;;;;;;;;;;;;;;28.57;41.99;97791.48;591801;239;64913;-69
2022/12/03 00:35:12;;;;;;;;;;;;;;;28.57;41.36;97791.48;591776;239;68812;-69
2022/12/03 00:37:39;;;;;;;;;;;;;;;28.55;41.12;97793.67;591746;239;66716;-69
2022/12/03 00:40:07;;;;;;;;;;;;;;;28.52;41.66;97805.89;591729;239;65053;-69
2022/12/03 00:42:35;;;;;;;;;;;;;;;28.52;42.33;97805.89;591725;239;68844;-69
2022/12/03 00:45:03;;;;;;;;;;;;;;;28.50;40.67;97804.59;591808;239;66365;-69
2022/12/03 00:47:31;;;;;;;;;;;;;;;28.49;41.74;97801.09;592010;238;65054;-69
2022/12/03 00:49:58;;;;;;;;;;;;;;;28.48;41.63;97804.91;595478;238;68803;-69
2022/12/03 00:52:26;;;;;;;;;;;;;;;28.48;41.96;97812.19;595429;237;66695;-66
2022/12/03 00:54:53;;;;;;;;;;;;;;;28.46;42.51;97806.31;595474;238;63016;-66
2022/12/03 00:57:21;;;;;;;;;;;;;;;28.44;41.73;97812.00;595527;238;66643;-66
2022/12/03 00:59:48;;;;;;;;;;;;;;;28.41;41.66;97814.48;595499;238;66579;-66
2022/12/03 01:02:16;;;;;;;;;;;;;;;28.42;42.41;97816.88;595471;238;62866;-66
2022/12/03 01:04:43;;;;;;;;;;;;;;;28.42;42.63;97821.48;595443;238;66653;-66
2022/12/03 01:07:11;;;;;;;;;;;;;;;28.39;40.67;97822.88;595447;238;67004;-66
2022/12/03 01:09:39;;;;;;;;;;;;;;;28.40;41.09;97823.67;595495;238;65804;-66
2022/12/03 01:12:06;;;;;;;;;;;;;;;28.38;40.61;97821.29;595520;238;68842;-66
2022/12/03 01:14:34;;;;;;;;;;;;;;;28.38;41.66;97823.99;595489;238;68638;-66
2022/12/03 01:17:01;;;;;;;;;;;;;;;28.35;41.97;97821.89;595455;238;65046;-66
2022/12/03 01:19:28;;;;;;;;;;;;;;;28.33;41.05;97818.68;595454;238;68802;-66
2022/12/03 01:21:56;;;;;;;;;;;;;;;28.32;43.12;97817.09;595482;238;68741;-66
2022/12/03 01:24:23;;;;;;;;;;;;;;;28.32;41.88;97817.09;595498;238;65109;-66
2022/12/03 01:26:51;;;;;;;;;;;;;;;28.29;40.92;97826.59;595486;238;68440;-66
2022/12/03 01:29:18;;;;;;;;;;;;;;;28.27;41.48;97820.68;595456;238;68618;-66
2022/12/03 01:34:31;;;;;;;;;;;;;;;28.25;40.93;97824.78;595469;238;66904;-65
2022/12/03 01:36:59;;;;;;;;;;;;;;;28.23;42.17;97829.68;595492;238;66709;-65
2022/12/03 01:39:26;;;;;;;;;;;;;;;28.22;40.83;97828.87;595463;238;62909;-65
2022/12/03 01:41:54;;;;;;;;;;;;;;;28.22;40.85;97833.49;595479;238;68790;-65
2022/12/03 01:44:29;;;;;;;;;;;;;;;28.19;43.99;97829.48;595405;238;66702;-65
2022/12/03 01:46:58;;;;;;;;;;;;;;;28.18;41.87;97827.86;595238;238;65072;-66
2022/12/03 01:49:27;;;;;;;;;;;;;;;28.17;42.74;97826.27;595444;238;68864;-66
2022/12/03 01:51:56;;;;;;;;;;;;;;;28.14;40.88;97826.08;595490;238;69341;-66
2022/12/03 01:54:27;;;;;;;;;;;;;;;28.14;42.29;97821.47;595467;238;65029;-66
2022/12/03 01:56:56;;;;;;;;;;;;;;;28.11;42.27;97822.86;595403;238;69617;-66
2022/12/03 01:59:25;;;;;;;;;;;;;;;28.10;41.62;97823.97;595462;238;68708;-66
2022/12/03 02:01:52;;;;;;;;;;;;;;;28.10;40.94;97818.56;595390;238;65002;-66
2022/12/03 02:04:21;;;;;;;;;;;;;;;28.09;42.07;97821.55;595501;238;68816;-66
2022/12/03 02:06:49;;;;;;;;;;;;;;;28.07;41.26;97821.87;595461;238;68714;-66
2022/12/03 02:09:18;;;;;;;;;;;;;;;28.05;42.83;97824.06;595458;238;63717;-66
2022/12/03 02:11:47;;;;;;;;;;;;;;;28.05;40.55;97820.56;595444;238;66717;-66
2022/12/03 02:14:15;;;;;;;;;;;;;;;28.04;42.20;97821.64;595483;238;66528;-66
2022/12/03 02:16:43;;;;;;;;;;;;;;;28.03;40.82;97825.45;595454;238;62561;-66
2022/12/03 02:19:18;;;;;;;;;;;;;;;28.02;41.06;97821.13;595498;238;66461;-66
2022/12/03 02:21:49;;;;;;;;;;;;;;;28.01;42.59;97822.24;595424;238;69034;-67
2022/12/03 02:24:24;;;;;;;;;;;;;;;27.98;43.26;97829.05;594639;238;65057;-65
2022/12/03 02:26:51;;;;;;;;;;;;;;;27.97;41.87;97827.45;595384;238;68928;-66
2022/12/03 02:29:19;;;;;;;;;;;;;;;27.96;43.21;97823.13;595454;238;68739;-66
2022/12/03 02:31:46;;;;;;;;;;;;;;;27.96;43.80;97823.13;595508;238;65208;-66
2022/12/03 02:34:15;;;;;;;;;;;;;;;27.95;42.03;97828.84;595443;238;68873;-66
2022/12/03 02:36:43;;;;;;;;;;;;;;;27.93;42.90;97825.62;593399;238;66749;-66
2022/12/03 02:39:10;;;;;;;;;;;;;;;27.93;43.46;97833.73;595499;238;62958;-66
2022/12/03 02:44:23;;;;;;;;;;;;;;;27.90;41.98;97829.72;595452;238;66361;-70
2022/12/03 02:46:51;;;;;;;;;;;;;;;27.88;43.11;97831.91;595479;238;65081;-70
2022/12/03 02:49:18;;;;;;;;;;;;;;;27.88;43.27;97845.42;592319;238;68962;-69
2022/12/03 02:51:46;;;;;;;;;;;;;;;27.85;42.66;97838.70;591733;239;68724;-65
2022/12/03 02:54:13;;;;;;;;;;;;;;;27.84;43.20;97841.72;591734;239;65052;-65
2022/12/03 02:56:41;;;;;;;;;;;;;;;27.84;43.70;97839.81;591738;239;68852;-65
2022/12/03 02:59:08;;;;;;;;;;;;;;;27.81;42.89;97834.22;591785;239;68890;-65
2022/12/03 03:01:36;;;;;;;;;;;;;;;27.81;44.11;97835.01;591711;239;65122;-65
2022/12/03 03:04:04;;;;;;;;;;;;;;;27.79;42.37;97839.87;591733;239;68935;-65
2022/12/03 03:06:32;;;;;;;;;;;;;;;27.79;43.07;97844.47;591769;239;68594;-65
2022/12/03 03:08:59;;;;;;;;;;;;;;;27.77;41.63;97841.26;591771;239;65049;-65
2022/12/03 03:11:27;;;;;;;;;;;;;;;27.76;43.11;97837.77;591741;239;68811;-65
2022/12/03 03:13:55;;;;;;;;;;;;;;;27.75;43.92;97838.88;591671;239;68741;-65
2022/12/03 03:16:22;;;;;;;;;;;;;;;27.74;44.53;97849.95;591747;239;65063;-65
2022/12/03 03:18:50;;;;;;;;;;;;;;;27.72;43.69;97842.16;591758;239;68673;-65
2022/12/03 03:21:18;;;;;;;;;;;;;;;27.72;42.69;97849.44;591740;239;68653;-69
2022/12/03 03:23:46;;;;;;;;;;;;;;;27.70;43.91;97854.36;591713;239;62808;-68
2022/12/03 03:26:15;;;;;;;;;;;;;;;27.70;43.90;97857.06;591827;239;68801;-68
2022/12/03 03:28:44;;;;;;;;;;;;;;;27.68;43.64;97851.94;591785;239;68238;-68
2022/12/03 03:31:13;;;;;;;;;;;;;;;27.66;43.81;97849.55;591786;239;62936;-68
2022/12/03 03:33:42;;;;;;;;;;;;;;;27.65;43.25;97847.92;594408;237;68540;-69
2022/12/03 03:36:11;;;;;;;;;;;;;;;27.64;43.82;97843.63;598633;237;68765;-69
2022/12/03 03:38:40;;;;;;;;;;;;;;;27.63;43.78;97852.02;598742;237;41495;-69
2022/12/03 03:41:09;;;;;;;;;;;;;;;27.61;42.36;97849.63;598591;237;66276;-70
2022/12/03 03:43:37;;;;;;;;;;;;;;;27.60;44.07;97849.91;598653;237;66455;-69
2022/12/03 03:46:06;;;;;;;;;;;;;;;27.59;42.96;97845.61;598647;237;63021;-69
2022/12/03 03:48:34;;;;;;;;;;;;;;;27.58;42.23;97846.69;598520;237;68413;-69
2022/12/03 03:51:02;;;;;;;;;;;;;;;27.57;44.31;97853.20;598567;237;68690;-69
2022/12/03 03:53:30;;;;;;;;;;;;;;;27.56;44.59;97854.30;598591;237;63833;-69
2022/12/03 03:55:59;;;;;;;;;;;;;;;27.53;43.17;97861.09;598505;237;68571;-69
2022/12/03 03:58:26;;;;;;;;;;;;;;;27.53;43.34;97861.09;598523;237;68755;-70
2022/12/03 04:00:54;;;;;;;;;;;;;;;27.51;43.15;97868.67;598510;237;65079;-70
2022/12/03 04:03:21;;;;;;;;;;;;;;;27.50;42.90;97869.78;598526;237;69006;-69
2022/12/03 04:05:49;;;;;;;;;;;;;;;27.49;44.70;97859.27;598562;237;68666;-69
2022/12/03 04:08:17;;;;;;;;;;;;;;;27.48;43.78;97869.27;598487;237;64985;-69
2022/12/03 04:13:30;;;;;;;;;;;;;;;27.45;43.12;97865.25;598544;237;68754;-65
2022/12/03 04:15:58;;;;;;;;;;;;;;;27.44;42.44;97857.44;598518;237;65083;-65
2022/12/03 04:18:43;;;;;;;;;;;;;;;27.42;41.80;97859.64;598593;237;68966;-65
2022/12/03 04:23:58;;;;;;;;;;;;;;;27.40;43.62;97859.92;598522;237;63057;-67
2022/12/03 04:29:11;;;;;;;;;;;;;;;27.37;44.16;97857.02;598523;237;66763;-65
2022/12/03 04:37:10;;;;;;;;;;;;;;;27.33;43.83;97856.78;598519;237;68789;-69
2022/12/03 04:39:37;;;;;;;;;;;;;;;27.32;44.25;97852.48;598563;237;65358;-69
2022/12/03 04:42:05;;;;;;;;;;;;;;;27.30;43.99;97854.67;598500;237;68702;-69
2022/12/03 04:44:38;;;;;;;;;;;;;;;27.30;45.26;97848.47;598546;237;68401;-70
2022/12/03 04:47:12;;;;;;;;;;;;;;;27.28;44.20;97856.05;598382;237;62857;-69
2022/12/03 04:49:41;;;;;;;;;;;;;;;27.28;43.87;97864.15;598580;237;66664;-70
2022/12/03 04:52:09;;;;;;;;;;;;;;;27.27;45.15;97866.05;598606;237;67047;-69
2022/12/03 04:54:37;;;;;;;;;;;;;;;27.26;44.53;97871.76;598660;237;65140;-70
2022/12/03 04:57:05;;;;;;;;;;;;;;;27.25;42.74;97875.53;598604;237;66773;-69
2022/12/03 04:59:33;;;;;;;;;;;;;;;27.23;44.64;97865.05;598618;237;66681;-69
2022/12/03 05:02:01;;;;;;;;;;;;;;;27.22;45.29;97885.01;598601;237;65230;-69
2022/12/03 05:04:28;;;;;;;;;;;;;;;27.20;42.54;97884.48;598584;237;68892;-69
2022/12/03 05:06:56;;;;;;;;;;;;;;;27.19;43.55;97886.39;598619;237;68667;-70
2022/12/03 05:09:23;;;;;;;;;;;;;;;27.19;46.01;97878.30;598654;237;63006;-70
2022/12/03 05:11:51;;;;;;;;;;;;;;;27.17;45.27;97869.70;598591;237;66407;-70
2022/12/03 05:14:18;;;;;;;;;;;;;;;27.16;44.93;97857.30;598615;237;66549;-70
2022/12/03 05:16:46;;;;;;;;;;;;;;;27.15;43.87;97866.46;598568;237;63843;-69
2022/12/03 05:19:13;;;;;;;;;;;;;;;27.13;44.13;97863.24;598618;237;69003;-70
2022/12/03 05:21:41;;;;;;;;;;;;;;;27.13;43.48;97870.54;598603;237;68625;-70
2022/12/03 05:24:08;;;;;;;;;;;;;;;27.10;44.78;97871.92;598625;237;65229;-70
2022/12/03 05:26:36;;;;;;;;;;;;;;;27.11;45.45;97873.52;598598;237;68784;-70
2022/12/03 05:29:03;;;;;;;;;;;;;;;27.10;45.77;97874.62;598589;237;68750;-69
2022/12/03 05:31:31;;;;;;;;;;;;;;;27.09;45.10;97878.42;598637;237;65085;-70
2022/12/03 05:33:58;;;;;;;;;;;;;;;27.08;43.98;97881.39;598646;237;68752;-70
2022/12/03 05:36:26;;;;;;;;;;;;;;;27.07;45.04;97879.80;598571;237;68501;-69
2022/12/03 05:38:53;;;;;;;;;;;;;;;27.05;42.53;97882.78;598632;237;63990;-70
2022/12/03 05:44:06;;;;;;;;;;;;;;;27.04;46.50;97881.19;598600;237;66556;-69
2022/12/03 05:46:34;;;;;;;;;;;;;;;27.03;46.03;97884.16;598573;237;62946;-70
2022/12/03 05:49:01;;;;;;;;;;;;;;;27.00;44.60;97886.34;598500;237;68804;-70
2022/12/03 05:51:29;;;;;;;;;;;;;;;26.99;45.78;97886.64;598524;237;68638;-69
2022/12/03 05:53:57;;;;;;;;;;;;;;;26.98;45.97;97893.11;598516;237;63727;-69
2022/12/03 05:56:24;;;;;;;;;;;;;;;26.96;44.97;97885.32;598528;237;66846;-69
2022/12/03 05:58:52;;;;;;;;;;;;;;;26.95;43.75;97889.09;598531;237;66431;-70
2022/12/03 06:01:21;;;;;;;;;;;;;;;26.96;44.81;97895.31;598525;237;65817;-70
2022/12/03 06:03:48;;;;;;;;;;;;;;;26.93;44.09;97893.20;598507;237;68846;-69
2022/12/03 06:06:16;;;;;;;;;;;;;;;26.93;45.23;97893.20;598469;236;68944;-69
2022/12/03 06:08:43;;;;;;;;;;;;;;;26.92;45.29;97895.06;598560;237;65061;-69
2022/12/03 06:11:11;;;;;;;;;;;;;;;26.91;44.64;97901.56;598498;236;68781;-69
2022/12/03 06:13:38;;;;;;;;;;;;;;;26.91;45.33;97903.47;598498;237;68635;-70
2022/12/03 06:16:06;;;;;;;;;;;;;;;26.88;44.68;97914.83;598508;237;65143;-70
2022/12/03 06:18:33;;;;;;;;;;;;;;;26.88;45.46;97912.93;598527;237;68822;-70
2022/12/03 06:21:01;;;;;;;;;;;;;;;26.86;44.56;97922.40;598540;237;68645;-70
2022/12/03 06:23:28;;;;;;;;;;;;;;;26.86;46.96;97922.40;598575;237;65211;-69
2022/12/03 06:25:56;;;;;;;;;;;;;;;26.84;45.65;97922.67;598481;237;68466;-70
2022/12/03 06:28:24;;;;;;;;;;;;;;;26.83;46.36;97928.37;598500;237;68708;-70
2022/12/03 06:30:53;;;;;;;;;;;;;;;26.83;46.10;97931.07;598494;237;65073;-70
2022/12/03 06:33:21;;;;;;;;;;;;;;;26.82;46.51;97932.97;598526;237;69084;-69
2022/12/03 06:35:48;;;;;;;;;;;;;;;26.82;45.97;97924.05;598544;237;68780;-69
2022/12/03 06:38:16;;;;;;;;;;;;;;;26.78;46.16;97932.72;598485;237;65014;-66
2022/12/03 06:40:43;;;;;;;;;;;;;;;26.79;46.11;97930.82;598472;237;68827;-66
2022/12/03 06:43:10;;;;;;;;;;;;;;;26.77;46.86;97931.12;598533;237;68682;-66
2022/12/03 06:45:38;;;;;;;;;;;;;;;26.78;46.98;97924.62;598533;237;64880;-66
2022/12/03 06:48:08;;;;;;;;;;;;;;;26.76;45.43;97923.30;598577;237;49901;-66
2022/12/03 06:50:36;;;;;;;;;;;;;;;26.75;44.86;97927.91;598510;237;68693;-66
2022/12/03 06:53:04;;;;;;;;;;;;;;;26.75;44.79;97925.20;598536;237;65091;-66
2022/12/03 06:55:31;;;;;;;;;;;;;;;26.75;45.49;97927.91;598513;237;66877;-66
2022/12/03 06:57:59;;;;;;;;;;;;;;;26.74;46.24;97918.22;598510;237;66753;-66
2022/12/03 07:00:26;;;;;;;;;;;;;;;26.73;47.00;97919.28;598569;237;62933;-66
2022/12/03 07:02:54;;;;;;;;;;;;;;;26.73;46.92;97918.49;598518;237;66456;-66
2022/12/03 07:05:21;;;;;;;;;;;;;;;26.72;45.37;97916.89;598382;237;66575;-69
2022/12/03 07:07:50;;;;;;;;;;;;;;;26.71;46.24;97910.70;598512;237;62890;-69
2022/12/03 07:10:18;;;;;;;;;;;;;;;26.72;47.12;97920.39;598505;237;68833;-69
2022/12/03 07:12:46;;;;;;;;;;;;;;;26.73;47.56;97921.19;598594;237;68456;-69
2022/12/03 07:15:13;;;;;;;;;;;;;;;26.72;46.09;97927.68;598540;237;65069;-69
2022/12/03 07:17:41;;;;;;;;;;;;;;;26.71;46.98;97931.45;598469;237;68685;-69
2022/12/03 07:20:09;;;;;;;;;;;;;;;26.70;47.72;97930.66;598508;237;69015;-69
2022/12/03 07:22:36;;;;;;;;;;;;;;;26.70;46.22;97924.45;598489;237;62974;-69
2022/12/03 07:25:04;;;;;;;;;;;;;;;26.70;46.58;97927.16;598525;237;67371;-69
2022/12/03 07:27:32;;;;;;;;;;;;;;;26.71;46.52;97916.09;598553;237;68676;-69
2022/12/03 07:29:59;;;;;;;;;;;;;;;26.72;47.05;97916.89;598530;237;64924;-69
2022/12/03 07:32:27;;;;;;;;;;;;;;;26.74;48.48;97933.59;598514;237;68891;-69
2022/12/03 07:34:56;;;;;;;;;;;;;;;26.72;46.02;97923.09;598378;237;68531;-69
2022/12/03 07:37:24;;;;;;;;;;;;;;;26.73;46.51;97923.88;598554;237;62821;-69
2022/12/03 07:39:51;;;;;;;;;;;;;;;26.73;47.03;97919.28;598588;237;66163;-69
2022/12/03 07:42:18;;;;;;;;;;;;;;;26.72;45.67;97919.59;598454;237;68486;-70
2022/12/03 07:44:46;;;;;;;;;;;;;;;26.72;47.92;97919.59;598487;237;65130;-69
2022/12/03 07:47:13;;;;;;;;;;;;;;;26.73;46.05;97918.49;598502;237;68913;-66
2022/12/03 07:49:41;;;;;;;;;;;;;;;26.73;44.49;97919.28;598523;236;68464;-66
2022/12/03 07:52:08;;;;;;;;;;;;;;;26.74;47.95;97915.52;598290;237;65686;-66
2022/12/03 07:54:36;;;;;;;;;;;;;;;26.74;48.64;97915.52;598529;237;68323;-66
2022/12/03 07:57:03;;;;;;;;;;;;;;;26.74;46.08;97920.91;598564;237;68411;-66
2022/12/03 07:59:31;;;;;;;;;;;;;;;26.74;46.45;97915.52;598495;237;65046;-66
2022/12/03 08:01:58;;;;;;;;;;;;;;;26.75;47.01;97922.51;598545;237;68897;-66
2022/12/03 08:04:26;;;;;;;;;;;;;;;26.76;45.65;97917.91;598563;237;68659;-66
2022/12/03 08:06:54;;;;;;;;;;;;;;;26.75;46.16;97919.02;598545;237;65020;-66
2022/12/03 08:09:21;;;;;;;;;;;;;;;26.77;45.72;97919.54;598460;237;68859;-66
2022/12/03 08:11:49;;;;;;;;;;;;;;;26.77;47.76;97919.54;598483;237;68628;-66
2022/12/03 08:14:17;;;;;;;;;;;;;;;26.77;46.60;97924.93;598478;237;62989;-69
2022/12/03 08:16:46;;;;;;;;;;;;;;;26.77;45.47;97923.03;598520;237;67496;-68
2022/12/03 08:19:15;;;;;;;;;;;;;;;26.79;45.98;97918.16;598538;237;68708;-69
2022/12/03 08:21:42;;;;;;;;;;;;;;;26.79;45.07;97928.95;598520;237;64886;-69
2022/12/03 08:26:48;;;;;;;;;;;;;;;26.83;43.96;97920.28;615101;229;67965;-69
2022/12/03 08:29:19;;;;;;;;;;;;;;;26.83;44.16;97923.78;614724;230;63012;-69
2022/12/03 08:31:53;;;;;;;;;;;;;;;26.83;45.39;97928.37;614943;230;68869;-69
2022/12/03 08:34:22;;;;;;;;;;;;;;;26.84;43.57;97924.58;614877;230;68992;-69
2022/12/03 08:36:51;;;;;;;;;;;;;;;26.85;44.02;97927.00;614848;230;62987;-69
2022/12/03 08:39:27;;;;;;;;;;;;;;;26.87;45.45;97924.80;614636;230;68829;-68
2022/12/03 08:44:41;;;;;;;;;;;;;;;26.88;45.49;97931.81;614931;230;65138;-66
2022/12/03 08:47:11;;;;;;;;;;;;;;;26.90;45.08;97936.91;614930;230;66606;-66
2022/12/03 08:49:39;;;;;;;;;;;;;;;26.91;46.19;97938.53;614883;230;68692;-66
2022/12/03 08:52:11;;;;;;;;;;;;;;;26.90;44.48;97939.59;614928;230;65347;-67
2022/12/03 08:54:39;;;;;;;;;;;;;;;26.92;42.81;97942.82;614892;230;69225;-65
2022/12/03 08:57:26;;;;;;;;;;;;;;;26.94;44.19;97935.25;614889;230;68670;-68
2022/12/03 08:59:55;;;;;;;;;;;;;;;26.95;45.20;97934.95;614793;230;62727;-68
2022/12/03 09:02:24;;;;;;;;;;;;;;;26.96;43.85;97933.88;614938;230;68769;-69
2022/12/03 09:04:53;;;;;;;;;;;;;;;26.97;44.87;97927.37;614877;229;69178;-69
2022/12/03 09:07:21;;;;;;;;;;;;;;;26.99;45.60;97927.10;614895;230;62932;-69
2022/12/03 09:09:48;;;;;;;;;;;;;;;27.01;44.92;97933.02;614908;230;66524;-69
2022/12/03 09:12:18;;;;;;;;;;;;;;;27.02;44.78;97931.92;614888;230;66587;-69
2022/12/03 09:14:45;;;;;;;;;;;;;;;27.04;42.18;97929.74;614883;230;62916;-69
2022/12/03 09:17:13;;;;;;;;;;;;;;;27.06;43.97;97926.73;614963;230;66238;-69
2022/12/03 09:19:43;;;;;;;;;;;;;;;27.07;42.10;97929.16;614898;230;66681;-69
2022/12/03 09:22:10;;;;;;;;;;;;;;;27.08;44.07;97928.06;614911;230;69281;-69
2022/12/03 09:24:38;;;;;;;;;;;;;;;27.10;42.94;97928.58;615107;230;68658;-69
2022/12/03 09:27:05;;;;;;;;;;;;;;;27.13;43.23;97921.80;616921;230;68650;-69
2022/12/03 09:29:33;;;;;;;;;;;;;;;27.14;42.32;97928.80;616985;230;65055;-69
2022/12/03 09:32:00;;;;;;;;;;;;;;;27.16;42.94;97932.02;616952;230;68915;-69
2022/12/03 09:34:28;;;;;;;;;;;;;;;27.16;42.66;97930.14;616958;230;68614;-69
2022/12/03 09:36:55;;;;;;;;;;;;;;;27.19;41.95;97931.47;616943;230;63041;-69
2022/12/03 09:39:23;;;;;;;;;;;;;;;27.20;42.53;97933.89;616907;230;66616;-69
2022/12/03 09:41:50;;;;;;;;;;;;;;;27.22;43.45;97930.88;617027;230;68444;-69
2022/12/03 09:44:18;;;;;;;;;;;;;;;27.23;43.48;97927.11;616954;230;65007;-69
2022/12/03 09:46:46;;;;;;;;;;;;;;;27.25;43.66;97924.91;616951;230;68820;-69
2022/12/03 09:49:15;;;;;;;;;;;;;;;27.26;44.14;97923.03;616902;230;68992;-69
2022/12/03 09:51:45;;;;;;;;;;;;;;;27.27;44.07;97924.62;616934;230;65040;-69
2022/12/03 09:54:15;;;;;;;;;;;;;;;27.28;43.46;97924.31;616917;230;68896;-70
2022/12/03 09:56:42;;;;;;;;;;;;;;;27.30;42.78;97926.73;616758;230;66745;-69
2022/12/03 09:59:13;;;;;;;;;;;;;;;27.30;42.99;97927.53;616878;230;63006;-69
2022/12/03 10:01:41;;;;;;;;;;;;;;;27.32;42.21;97930.75;616848;230;66608;-69
2022/12/03 10:04:09;;;;;;;;;;;;;;;27.33;42.35;97929.66;616913;230;66708;-69
2022/12/03 10:06:37;;;;;;;;;;;;;;;27.35;41.77;97929.38;616912;230;62809;-69
2022/12/03 10:09:05;;;;;;;;;;;;;;;27.36;41.77;97925.57;616523;230;66411;-66
2022/12/03 10:11:35;;;;;;;;;;;;;;;27.37;42.73;97927.20;616660;230;49820;-65
2022/12/03 10:14:03;;;;;;;;;;;;;;;27.38;42.55;97918.79;616918;230;65165;-66
2022/12/03 10:16:30;;;;;;;;;;;;;;;27.39;42.46;97923.11;616968;230;69051;-66
2022/12/03 10:18:59;;;;;;;;;;;;;;;27.41;41.34;97928.20;616939;230;68667;-66
2022/12/03 10:21:31;;;;;;;;;;;;;;;27.41;42.58;97929.00;616955;230;65189;-66
2022/12/03 10:24:18;;;;;;;;;;;;;;;27.43;43.07;97931.42;616955;230;66720;-67
2022/12/03 10:26:46;;;;;;;;;;;;;;;27.43;42.21;97926.82;616919;230;68627;-65
2022/12/03 10:29:15;;;;;;;;;;;;;;;27.45;42.16;97924.64;616964;230;63883;-66
2022/12/03 10:31:42;;;;;;;;;;;;;;;27.46;41.78;97925.44;616973;230;68802;-65
2022/12/03 10:34:10;;;;;;;;;;;;;;;27.47;42.80;97932.43;616982;230;68664;-65
2022/12/03 10:36:38;;;;;;;;;;;;;;;27.47;42.04;97929.73;616928;230;62929;-65
2022/12/03 10:39:10;;;;;;;;;;;;;;;27.48;42.68;97925.95;617014;230;66701;-65
2022/12/03 10:41:38;;;;;;;;;;;;;;;27.49;42.13;97930.25;616975;230;67522;-65
2022/12/03 10:44:15;;;;;;;;;;;;;;;27.52;43.14;97934.27;616906;230;65063;-65
2022/12/03 10:46:43;;;;;;;;;;;;;;;27.53;42.12;97930.45;616841;230;68801;-65
2022/12/03 10:49:12;;;;;;;;;;;;;;;27.54;42.57;97929.38;616942;230;68647;-65
2022/12/03 10:51:40;;;;;;;;;;;;;;;27.55;41.39;97934.47;616607;230;65111;-65
2022/12/03 10:54:12;;;;;;;;;;;;;;;27.57;43.30;97926.89;616951;230;68978;-65
2022/12/03 10:56:40;;;;;;;;;;;;;;;27.58;42.70;97927.69;616725;230;65887;-65
2022/12/03 10:59:09;;;;;;;;;;;;;;;27.60;43.17;97928.20;616985;230;62990;-65
2022/12/03 11:01:36;;;;;;;;;;;;;;;27.60;43.14;97926.30;616836;230;66598;-65
2022/12/03 11:04:06;;;;;;;;;;;;;;;27.61;43.13;97921.70;616859;230;66966;-65
2022/12/03 11:06:34;;;;;;;;;;;;;;;27.63;41.63;97924.92;617005;230;62950;-65
2022/12/03 11:09:03;;;;;;;;;;;;;;;27.64;42.20;97921.94;616821;230;66575;-65
2022/12/03 11:11:31;;;;;;;;;;;;;;;27.64;40.61;97913.84;616732;230;68558;-64
2022/12/03 11:14:01;;;;;;;;;;;;;;;27.64;41.27;97916.54;616905;230;65525;-64
2022/12/03 11:16:42;;;;;;;;;;;;;;;27.64;42.28;97908.44;616868;230;68871;-65
2022/12/03 11:19:16;;;;;;;;;;;;;;;27.66;41.77;97917.05;617011;230;66555;-64
2022/12/03 11:22:01;;;;;;;;;;;;;;;27.67;41.59;97910.55;616975;230;65058;-64
2022/12/03 11:24:29;;;;;;;;;;;;;;;27.70;40.95;97911.06;616839;230;68473;-65
2022/12/03 11:26:59;;;;;;;;;;;;;;;27.69;41.05;97910.23;616961;230;68764;-65
2022/12/03 11:29:31;;;;;;;;;;;;;;;27.71;41.45;97916.16;616588;230;65055;-64
2022/12/03 11:31:58;;;;;;;;;;;;;;;27.71;42.23;97921.56;615017;230;69126;-67
2022/12/03 11:34:28;;;;;;;;;;;;;;;27.74;40.62;97920.17;617006;230;68555;-67
2022/12/03 11:37:12;;;;;;;;;;;;;;;27.74;41.96;97920.97;617028;230;65106;-68
2022/12/03 11:39:50;;;;;;;;;;;;;;;27.74;41.70;97918.27;616845;230;66518;-67
2022/12/03 11:42:28;;;;;;;;;;;;;;;27.76;42.33;97918.78;616918;230;68733;-67
2022/12/03 11:45:12;;;;;;;;;;;;;;;27.78;42.49;97911.20;616691;228;62692;-67
2022/12/03 11:47:43;;;;;;;;;;;;;;;27.79;42.13;97911.99;616567;230;66147;-68
2022/12/03 11:50:21;;;;;;;;;;;;;;;27.81;42.39;97909.84;617025;230;68293;-67
2022/12/03 11:52:50;;;;;;;;;;;;;;;27.83;41.60;97913.86;616975;230;65237;-67
2022/12/03 11:55:19;;;;;;;;;;;;;;;27.83;40.65;97910.36;614710;230;68461;-67
2022/12/03 11:57:47;;;;;;;;;;;;;;;27.87;39.58;97909.45;616720;230;68424;-68
2022/12/03 12:00:21;;;;;;;;;;;;;;;27.88;39.79;97913.78;616956;230;64854;-68
2022/12/03 12:02:50;;;;;;;;;;;;;;;27.91;41.70;97912.39;617010;230;68334;-68
2022/12/03 12:05:19;;;;;;;;;;;;;;;27.92;41.42;97908.58;617011;230;68432;-69
2022/12/03 12:07:48;;;;;;;;;;;;;;;27.93;41.47;97912.87;616920;230;65058;-68
2022/12/03 12:10:33;;;;;;;;;;;;;;;27.95;42.20;97915.29;616950;230;66306;-68
2022/12/03 12:13:01;;;;;;;;;;;;;;;27.97;43.28;97913.91;616867;230;68511;-69
2022/12/03 12:15:36;;;;;;;;;;;;;;;27.98;42.66;97912.00;616918;230;65158;-71
2022/12/03 12:18:21;;;;;;;;;;;;;;;27.97;37.95;97908.50;616733;230;68908;-68
2022/12/03 12:20:48;;;;;;;;;;;;;;;27.97;41.83;97913.91;616989;230;67841;-68
2022/12/03 12:23:23;;;;;;;;;;;;;;;27.98;41.46;97901.19;616809;230;65072;-67
2022/12/03 12:25:51;;;;;;;;;;;;;;;27.97;40.29;97902.30;615505;230;66754;-68
2022/12/03 12:28:20;;;;;;;;;;;;;;;27.99;40.79;97911.72;614855;230;48345;-69
2022/12/03 12:30:47;;;;;;;;;;;;;;;27.99;40.64;97910.89;614563;230;65060;-68
2022/12/03 12:33:18;;;;;;;;;;;;;;;27.99;40.18;97917.12;614920;230;68643;-68
2022/12/03 12:35:46;;;;;;;;;;;;;;;28.01;41.00;97912.20;614949;230;66547;-68
2022/12/03 12:38:15;;;;;;;;;;;;;;;28.01;39.96;97908.70;614940;229;62607;-68
2022/12/03 12:40:44;;;;;;;;;;;;;;;28.02;41.96;97907.59;614890;230;66273;-68
2022/12/03 12:43:13;;;;;;;;;;;;;;;28.02;40.18;97908.42;614872;230;68652;-68
2022/12/03 12:45:42;;;;;;;;;;;;;;;28.04;38.98;97911.61;614820;230;65088;-69
2022/12/03 12:48:11;;;;;;;;;;;;;;;28.05;39.40;97909.73;596815;230;68305;-68
2022/12/03 12:50:39;;;;;;;;;;;;;;;28.07;42.44;97912.91;601449;230;65064;-68
2022/12/03 12:53:26;;;;;;;;;;;;;;;28.07;39.86;97908.34;613844;230;62920;-68
2022/12/03 12:55:58;;;;;;;;;;;;;;;28.06;39.49;97912.12;614107;229;68763;-68
2022/12/03 12:58:27;;;;;;;;;;;;;;;28.09;41.26;97916.92;612372;230;68692;-69
2022/12/03 13:00:57;;;;;;;;;;;;;;;28.09;41.24;97911.52;614866;230;64858;-69
2022/12/03 13:03:26;;;;;;;;;;;;;;;28.10;40.80;97913.14;613354;230;66403;-68
2022/12/03 13:05:54;;;;;;;;;;;;;;;28.12;39.63;97912.83;614900;230;68696;-68
2022/12/03 13:08:23;;;;;;;;;;;;;;;28.14;39.44;97907.94;614877;230;65051;-68
2022/12/03 13:10:51;;;;;;;;;;;;;;;28.16;40.29;97913.06;614874;230;68639;-69
2022/12/03 13:13:36;;;;;;;;;;;;;;;28.16;41.03;97910.36;614846;230;68781;-68
2022/12/03 13:16:08;;;;;;;;;;;;;;;28.17;40.56;97911.95;614771;230;63311;-75
2022/12/03 13:18:43;;;;;;;;;;;;;;;28.20;35.20;97914.86;614811;230;66521;-75
2022/12/03 13:21:12;;;;;;;;;;;;;;;28.29;36.70;97910.39;614893;230;68794;-68
2022/12/03 13:23:40;;;;;;;;;;;;;;;28.34;43.78;97914.88;614856;230;65037;-68